Station Historical Data
Daily Summary for August 5, 2017 Units:  Both    English   Metric
« Previous Day
Next Day »
Daily Weekly Monthly Yearly Custom
  High: Low: Average:
Temperature: 71.2 °F /  21.8 °C 56.3 °F /  13.5 °C 63.9 °F /  17.7 °C
Dew Point: 59.5 °F /  15.3 °C 49.5 °F /  9.7 °C 54.8 °F /  12.7 °C
Humidity: 90% 48% 73%
Wind Speed: 15.0mph /  24.1km/h - 5.2mph /  8.4km/h
Wind Gust: 23.0mph /  37km/h - -
Wind- - WSW
Pressure: 30.03 in /  1016.8 hPa 29.77 in /  1008 hPa -
Precipitation: 0.28 in /  7.11 mm    
Historical Graphs
 
 
Tabular Data for August 5, 2017
Time Temperature Dew Point Pressure Wind Wind Speed Wind Gust Humidity Rainfall Rate (Hourly)
00:00 66.5 °F /  19.2 °C 56.8 °F /  13.8 °C 29.78in /  1008.4hPa WSW 10.0mph /  16.1km/h 20.0mph /  32.2km/h 71% 0.00in /  0mm
00:05 66.5 °F /  19.2 °C 56.8 °F /  13.8 °C 29.78in /  1008.4hPa West 11.0mph /  17.7km/h 17.0mph /  27.4km/h 71% 0.00in /  0mm
00:10 66.4 °F /  19.1 °C 57.1 °F /  13.9 °C 29.78in /  1008.4hPa West 3.0mph /  4.8km/h 16.0mph /  25.7km/h 72% 0.00in /  0mm
00:20 66.0 °F /  18.9 °C 56.7 °F /  13.7 °C 29.78in /  1008.4hPa WSW 9.0mph /  14.5km/h 9.0mph /  14.5km/h 72% 0.00in /  0mm
00:25 66.0 °F /  18.9 °C 57.1 °F /  13.9 °C 29.78in /  1008.4hPa WNW 5.0mph /  8km/h 12.0mph /  19.3km/h 73% 0.00in /  0mm
00:30 66.2 °F /  19 °C 57.3 °F /  14.1 °C 29.78in /  1008.4hPa WSW 3.0mph /  4.8km/h 9.0mph /  14.5km/h 73% 0.00in /  0mm
00:35 66.2 °F /  19 °C 57.7 °F /  14.3 °C 29.78in /  1008.4hPa WSW 4.0mph /  6.4km/h 9.0mph /  14.5km/h 74% 0.00in /  0mm
00:40 66.3 °F /  19.1 °C 58.5 °F /  14.7 °C 29.78in /  1008.4hPa WSW 4.0mph /  6.4km/h 10.0mph /  16.1km/h 76% 0.00in /  0mm
00:45 66.6 °F /  19.2 °C 58.8 °F /  14.9 °C 29.78in /  1008.4hPa WSW 5.0mph /  8km/h 13.0mph /  20.9km/h 76% 0.00in /  0mm
00:50 66.9 °F /  19.4 °C 58.7 °F /  14.8 °C 29.78in /  1008.4hPa WSW 6.0mph /  9.7km/h 13.0mph /  20.9km/h 75% 0.00in /  0mm
00:55 67.0 °F /  19.4 °C 58.8 °F /  14.9 °C 29.78in /  1008.4hPa WSW 6.0mph /  9.7km/h 12.0mph /  19.3km/h 75% 0.00in /  0mm
01:00 66.6 °F /  19.2 °C 58.8 °F /  14.9 °C 29.78in /  1008.4hPa SSW 4.0mph /  6.4km/h 9.0mph /  14.5km/h 76% 0.00in /  0mm
01:05 65.5 °F /  18.6 °C 58.1 °F /  14.5 °C 29.78in /  1008.4hPa South 8.0mph /  12.9km/h 8.0mph /  12.9km/h 77% 0.00in /  0mm
01:10 64.9 °F /  18.3 °C 57.9 °F /  14.4 °C 29.78in /  1008.4hPa SSW 4.0mph /  6.4km/h 10.0mph /  16.1km/h 78% 0.00in /  0mm
01:15 64.4 °F /  18 °C 57.7 °F /  14.3 °C 29.79in /  1008.7hPa WSW 3.0mph /  4.8km/h 11.0mph /  17.7km/h 79% 0.01in /  0.25mm
01:20 64.0 °F /  17.8 °C 57.7 °F /  14.3 °C 29.79in /  1008.7hPa SW 4.0mph /  6.4km/h 9.0mph /  14.5km/h 80% 0.02in /  0.51mm
01:25 63.6 °F /  17.6 °C 57.7 °F /  14.3 °C 29.79in /  1008.7hPa SW 4.0mph /  6.4km/h 7.0mph /  11.3km/h 81% 0.02in /  0.51mm
01:30 63.3 °F /  17.4 °C 57.7 °F /  14.3 °C 29.78in /  1008.4hPa WNW 3.0mph /  4.8km/h 6.0mph /  9.7km/h 82% 0.04in /  1.02mm
01:35 63.0 °F /  17.2 °C 57.4 °F /  14.1 °C 29.78in /  1008.4hPa SSW 2.0mph /  3.2km/h 10.0mph /  16.1km/h 82% 0.07in /  1.78mm
01:40 62.5 °F /  16.9 °C 57.3 °F /  14.1 °C 29.78in /  1008.4hPa SW 4.0mph /  6.4km/h 10.0mph /  16.1km/h 83% 0.08in /  2.03mm
01:45 62.3 °F /  16.8 °C 57.4 °F /  14.1 °C 29.78in /  1008.4hPa SW 4.0mph /  6.4km/h 12.0mph /  19.3km/h 84% 0.09in /  2.29mm
01:50 62.2 °F /  16.8 °C 57.3 °F /  14.1 °C 29.78in /  1008.4hPa SW 5.0mph /  8km/h 12.0mph /  19.3km/h 84% 0.10in /  2.54mm
01:55 62.1 °F /  16.7 °C 57.2 °F /  14 °C 29.78in /  1008.4hPa SW 5.0mph /  8km/h 11.0mph /  17.7km/h 84% 0.10in /  2.54mm
02:00 62.0 °F /  16.7 °C 57.1 °F /  13.9 °C 29.78in /  1008.4hPa SW 5.0mph /  8km/h 11.0mph /  17.7km/h 84% 0.10in /  2.54mm
02:05 61.9 °F /  16.6 °C 57.3 °F /  14.1 °C 29.78in /  1008.4hPa SW 5.0mph /  8km/h 14.0mph /  22.5km/h 85% 0.11in /  2.79mm
02:10 61.8 °F /  16.6 °C 57.2 °F /  14 °C 29.78in /  1008.4hPa SW 4.0mph /  6.4km/h 14.0mph /  22.5km/h 85% 0.12in /  3.05mm
02:15 61.7 °F /  16.5 °C 57.1 °F /  13.9 °C 29.78in /  1008.4hPa SW 4.0mph /  6.4km/h 11.0mph /  17.7km/h 85% 0.11in /  2.79mm
02:20 61.6 °F /  16.4 °C 57.0 °F /  13.9 °C 29.78in /  1008.4hPa SW 3.0mph /  4.8km/h 11.0mph /  17.7km/h 85% 0.11in /  2.79mm
02:25 61.6 °F /  16.4 °C 57.4 °F /  14.1 °C 29.78in /  1008.4hPa SW 5.0mph /  8km/h 11.0mph /  17.7km/h 86% 0.12in /  3.05mm
02:30 61.5 °F /  16.4 °C 57.3 °F /  14.1 °C 29.78in /  1008.4hPa SSW 3.0mph /  4.8km/h 10.0mph /  16.1km/h 86% 0.10in /  2.54mm
02:35 61.4 °F /  16.3 °C 56.8 °F /  13.8 °C 29.78in /  1008.4hPa SSW 1.0mph /  1.6km/h 7.0mph /  11.3km/h 85% 0.07in /  1.78mm
02:40 61.4 °F /  16.3 °C 57.2 °F /  14 °C 29.78in /  1008.4hPa SW 1.0mph /  1.6km/h 7.0mph /  11.3km/h 86% 0.06in /  1.52mm
02:45 61.3 °F /  16.3 °C 56.8 °F /  13.8 °C 29.78in /  1008.4hPa SW 3.0mph /  4.8km/h 9.0mph /  14.5km/h 85% 0.05in /  1.27mm
02:50 61.3 °F /  16.3 °C 56.8 °F /  13.8 °C 29.78in /  1008.4hPa SW 4.0mph /  6.4km/h 9.0mph /  14.5km/h 85% 0.04in /  1.02mm
02:55 61.2 °F /  16.2 °C 56.7 °F /  13.7 °C 29.78in /  1008.4hPa SW 4.0mph /  6.4km/h 8.0mph /  12.9km/h 85% 0.04in /  1.02mm
03:00 61.1 °F /  16.2 °C 56.6 °F /  13.7 °C 29.78in /  1008.4hPa SW 4.0mph /  6.4km/h 8.0mph /  12.9km/h 85% 0.05in /  1.27mm
03:05 61.1 °F /  16.2 °C 56.6 °F /  13.7 °C 29.78in /  1008.4hPa SW 5.0mph /  8km/h 9.0mph /  14.5km/h 85% 0.04in /  1.02mm
03:10 61.0 °F /  16.1 °C 56.8 °F /  13.8 °C 29.77in /  1008hPa SSW 5.0mph /  8km/h 10.0mph /  16.1km/h 86% 0.03in /  0.76mm
03:15 61.0 °F /  16.1 °C 56.8 °F /  13.8 °C 29.77in /  1008hPa SW 6.0mph /  9.7km/h 12.0mph /  19.3km/h 86% 0.03in /  0.76mm
03:20 60.8 °F /  16 °C 56.6 °F /  13.7 °C 29.78in /  1008.4hPa SW 6.0mph /  9.7km/h 15.0mph /  24.1km/h 86% 0.03in /  0.76mm
03:25 60.7 °F /  15.9 °C 56.5 °F /  13.6 °C 29.78in /  1008.4hPa South 4.0mph /  6.4km/h 14.0mph /  22.5km/h 86% 0.02in /  0.51mm
03:30 60.5 °F /  15.8 °C 56.6 °F /  13.7 °C 29.77in /  1008hPa SW 7.0mph /  11.3km/h 9.0mph /  14.5km/h 87% 0.03in /  0.76mm
03:35 60.4 °F /  15.8 °C 56.5 °F /  13.6 °C 29.77in /  1008hPa SW 8.0mph /  12.9km/h 11.0mph /  17.7km/h 87% 0.03in /  0.76mm
03:40 60.4 °F /  15.8 °C 56.5 °F /  13.6 °C 29.78in /  1008.4hPa SSW 7.0mph /  11.3km/h 12.0mph /  19.3km/h 87% 0.03in /  0.76mm
03:45 60.4 °F /  15.8 °C 56.5 °F /  13.6 °C 29.78in /  1008.4hPa SW 5.0mph /  8km/h 13.0mph /  20.9km/h 87% 0.04in /  1.02mm
03:50 60.3 °F /  15.7 °C 56.4 °F /  13.6 °C 29.78in /  1008.4hPa SSW 2.0mph /  3.2km/h 14.0mph /  22.5km/h 87% 0.05in /  1.27mm
03:55 60.3 °F /  15.7 °C 56.4 °F /  13.6 °C 29.78in /  1008.4hPa SSW 3.0mph /  4.8km/h 9.0mph /  14.5km/h 87% 0.05in /  1.27mm
04:00 60.2 °F /  15.7 °C 56.6 °F /  13.7 °C 29.78in /  1008.4hPa South 3.0mph /  4.8km/h 8.0mph /  12.9km/h 88% 0.04in /  1.02mm
04:05 60.1 °F /  15.6 °C 56.5 °F /  13.6 °C 29.78in /  1008.4hPa SW 6.0mph /  9.7km/h 10.0mph /  16.1km/h 88% 0.04in /  1.02mm
04:10 60.0 °F /  15.6 °C 56.4 °F /  13.6 °C 29.78in /  1008.4hPa South 6.0mph /  9.7km/h 10.0mph /  16.1km/h 88% 0.04in /  1.02mm
04:15 60.1 °F /  15.6 °C 56.2 °F /  13.4 °C 29.78in /  1008.4hPa WSW 4.0mph /  6.4km/h 8.0mph /  12.9km/h 87% 0.05in /  1.27mm
04:20 60.0 °F /  15.6 °C 56.1 °F /  13.4 °C 29.78in /  1008.4hPa SSW 4.0mph /  6.4km/h 16.0mph /  25.7km/h 87% 0.05in /  1.27mm
04:25 59.9 °F /  15.5 °C 56.0 °F /  13.3 °C 29.78in /  1008.4hPa SSW 5.0mph /  8km/h 16.0mph /  25.7km/h 87% 0.05in /  1.27mm
04:30 59.9 °F /  15.5 °C 56.0 °F /  13.3 °C 29.78in /  1008.4hPa SSW 5.0mph /  8km/h 12.0mph /  19.3km/h 87% 0.04in /  1.02mm
04:35 59.8 °F /  15.4 °C 55.9 °F /  13.3 °C 29.78in /  1008.4hPa SSW 4.0mph /  6.4km/h 9.0mph /  14.5km/h 87% 0.04in /  1.02mm
04:40 59.8 °F /  15.4 °C 55.9 °F /  13.3 °C 29.78in /  1008.4hPa SW 2.0mph /  3.2km/h 12.0mph /  19.3km/h 87% 0.04in /  1.02mm
04:45 59.8 °F /  15.4 °C 55.9 °F /  13.3 °C 29.78in /  1008.4hPa SSW 5.0mph /  8km/h 9.0mph /  14.5km/h 87% 0.04in /  1.02mm
04:50 59.8 °F /  15.4 °C 55.9 °F /  13.3 °C 29.78in /  1008.4hPa SSW 4.0mph /  6.4km/h 10.0mph /  16.1km/h 87% 0.03in /  0.76mm
04:55 59.7 °F /  15.4 °C 55.8 °F /  13.2 °C 29.78in /  1008.4hPa SW 4.0mph /  6.4km/h 11.0mph /  17.7km/h 87% 0.03in /  0.76mm
05:00 59.7 °F /  15.4 °C 55.8 °F /  13.2 °C 29.78in /  1008.4hPa WSW 2.0mph /  3.2km/h 11.0mph /  17.7km/h 87% 0.03in /  0.76mm
05:05 59.6 °F /  15.3 °C 56.0 °F /  13.3 °C 29.78in /  1008.4hPa SW 7.0mph /  11.3km/h 11.0mph /  17.7km/h 88% 0.03in /  0.76mm
05:10 59.7 °F /  15.4 °C 55.8 °F /  13.2 °C 29.78in /  1008.4hPa WSW 2.0mph /  3.2km/h 8.0mph /  12.9km/h 87% 0.03in /  0.76mm
05:15 59.7 °F /  15.4 °C 55.8 °F /  13.2 °C 29.78in /  1008.4hPa South 5.0mph /  8km/h 9.0mph /  14.5km/h 87% 0.02in /  0.51mm
05:20 59.6 °F /  15.3 °C 55.7 °F /  13.2 °C 29.78in /  1008.4hPa SSW 4.0mph /  6.4km/h 14.0mph /  22.5km/h 87% 0.01in /  0.25mm
05:25 59.6 °F /  15.3 °C 55.7 °F /  13.2 °C 29.78in /  1008.4hPa SSW 5.0mph /  8km/h 14.0mph /  22.5km/h 87% 0.01in /  0.25mm
05:30 59.7 °F /  15.4 °C 55.5 °F /  13.1 °C 29.78in /  1008.4hPa SSW 5.0mph /  8km/h 13.0mph /  20.9km/h 86% 0.01in /  0.25mm
05:35 59.7 °F /  15.4 °C 55.2 °F /  12.9 °C 29.78in /  1008.4hPa SSW 5.0mph /  8km/h 13.0mph /  20.9km/h 85% 0.01in /  0.25mm
05:40 59.7 °F /  15.4 °C 55.2 °F /  12.9 °C 29.78in /  1008.4hPa SSW 5.0mph /  8km/h 14.0mph /  22.5km/h 85% 0.01in /  0.25mm
05:45 59.8 °F /  15.4 °C 55.3 °F /  12.9 °C 29.78in /  1008.4hPa SSW 6.0mph /  9.7km/h 15.0mph /  24.1km/h 85% 0.00in /  0mm
05:50 59.9 °F /  15.5 °C 55.1 °F /  12.8 °C 29.78in /  1008.4hPa SSW 6.0mph /  9.7km/h 15.0mph /  24.1km/h 84% 0.00in /  0mm
05:55 59.9 °F /  15.5 °C 55.4 °F /  13 °C 29.78in /  1008.4hPa SSW 8.0mph /  12.9km/h 17.0mph /  27.4km/h 85% 0.00in /  0mm
06:00 59.8 °F /  15.4 °C 55.3 °F /  12.9 °C 29.78in /  1008.4hPa South 5.0mph /  8km/h 18.0mph /  29km/h 85% 0.01in /  0.25mm
06:05 59.6 °F /  15.3 °C 55.4 °F /  13 °C 29.78in /  1008.4hPa SSW 8.0mph /  12.9km/h 11.0mph /  17.7km/h 86% 0.01in /  0.25mm
06:10 59.5 °F /  15.3 °C 55.3 °F /  12.9 °C 29.78in /  1008.4hPa SE 7.0mph /  11.3km/h 16.0mph /  25.7km/h 86% 0.01in /  0.25mm
06:15 59.5 °F /  15.3 °C 55.3 °F /  12.9 °C 29.79in /  1008.7hPa South 7.0mph /  11.3km/h 18.0mph /  29km/h 86% 0.01in /  0.25mm
06:20 59.4 °F /  15.2 °C 55.2 °F /  12.9 °C 29.79in /  1008.7hPa South 3.0mph /  4.8km/h 16.0mph /  25.7km/h 86% 0.01in /  0.25mm
06:25 59.3 °F /  15.2 °C 55.1 °F /  12.8 °C 29.79in /  1008.7hPa SSW 6.0mph /  9.7km/h 18.0mph /  29km/h 86% 0.01in /  0.25mm
06:30 59.2 °F /  15.1 °C 55.0 °F /  12.8 °C 29.80in /  1009hPa SSW 5.0mph /  8km/h 18.0mph /  29km/h 86% 0.01in /  0.25mm
06:35 59.2 °F /  15.1 °C 55.3 °F /  12.9 °C 29.80in /  1009hPa SW 5.0mph /  8km/h 13.0mph /  20.9km/h 87% 0.03in /  0.76mm
06:40 59.1 °F /  15.1 °C 55.2 °F /  12.9 °C 29.80in /  1009hPa SW 5.0mph /  8km/h 13.0mph /  20.9km/h 87% 0.04in /  1.02mm
06:45 59.0 °F /  15 °C 55.4 °F /  13 °C 29.81in /  1009.4hPa WSW 4.0mph /  6.4km/h 9.0mph /  14.5km/h 88% 0.04in /  1.02mm
06:50 59.0 °F /  15 °C 55.4 °F /  13 °C 29.81in /  1009.4hPa Calm   4.0mph /  6.4km/h 88% 0.04in /  1.02mm
06:55 59.1 °F /  15.1 °C 55.9 °F /  13.3 °C 29.81in /  1009.4hPa SW 2.0mph /  3.2km/h 6.0mph /  9.7km/h 89% 0.04in /  1.02mm
07:00 59.1 °F /  15.1 °C 55.9 °F /  13.3 °C 29.81in /  1009.4hPa SW 2.0mph /  3.2km/h 6.0mph /  9.7km/h 89% 0.03in /  0.76mm
07:05 59.3 °F /  15.2 °C 56.1 °F /  13.4 °C 29.81in /  1009.4hPa Calm   7.0mph /  11.3km/h 89% 0.03in /  0.76mm
07:10 59.6 °F /  15.3 °C 56.7 °F /  13.7 °C 29.81in /  1009.4hPa Calm   3.0mph /  4.8km/h 90% 0.03in /  0.76mm
07:15 59.7 °F /  15.4 °C 56.8 °F /  13.8 °C 29.81in /  1009.4hPa Calm   3.0mph /  4.8km/h 90% 0.03in /  0.76mm
07:20 59.9 °F /  15.5 °C 57.0 °F /  13.9 °C 29.81in /  1009.4hPa SW 1.0mph /  1.6km/h 3.0mph /  4.8km/h 90% 0.03in /  0.76mm
07:25 59.9 °F /  15.5 °C 56.6 °F /  13.7 °C 29.81in /  1009.4hPa West 1.0mph /  1.6km/h 5.0mph /  8km/h 89% 0.03in /  0.76mm
07:30 60.0 °F /  15.6 °C 56.7 °F /  13.7 °C 29.82in /  1009.7hPa West 2.0mph /  3.2km/h 5.0mph /  8km/h 89% 0.03in /  0.76mm
07:35 60.2 °F /  15.7 °C 56.9 °F /  13.8 °C 29.82in /  1009.7hPa West 2.0mph /  3.2km/h 7.0mph /  11.3km/h 89% 0.01in /  0.25mm
07:40 60.5 °F /  15.8 °C 56.9 °F /  13.8 °C 29.82in /  1009.7hPa West 3.0mph /  4.8km/h 7.0mph /  11.3km/h 88% 0.00in /  0mm
07:45 60.8 °F /  16 °C 56.9 °F /  13.8 °C 29.82in /  1009.7hPa West 3.0mph /  4.8km/h 6.0mph /  9.7km/h 87% 0.00in /  0mm
07:50 60.9 °F /  16.1 °C 57.0 °F /  13.9 °C 29.83in /  1010hPa WNW 7.0mph /  11.3km/h 8.0mph /  12.9km/h 87% 0.00in /  0mm
07:55 61.1 °F /  16.2 °C 56.9 °F /  13.8 °C 29.83in /  1010hPa West 3.0mph /  4.8km/h 7.0mph /  11.3km/h 86% 0.00in /  0mm
08:00 61.0 °F /  16.1 °C 56.8 °F /  13.8 °C 29.83in /  1010hPa West 3.0mph /  4.8km/h 7.0mph /  11.3km/h 86% 0.00in /  0mm
08:05 60.9 °F /  16.1 °C 56.4 °F /  13.6 °C 29.83in /  1010hPa WNW 4.0mph /  6.4km/h 7.0mph /  11.3km/h 85% 0.01in /  0.25mm
08:10 60.7 °F /  15.9 °C 56.5 °F /  13.6 °C 29.83in /  1010hPa West 6.0mph /  9.7km/h 10.0mph /  16.1km/h 86% 0.01in /  0.25mm
08:15 60.6 °F /  15.9 °C 56.1 °F /  13.4 °C 29.83in /  1010hPa WSW 3.0mph /  4.8km/h 10.0mph /  16.1km/h 85% 0.01in /  0.25mm
08:20 60.6 °F /  15.9 °C 55.7 °F /  13.2 °C 29.83in /  1010hPa WNW 2.0mph /  3.2km/h 11.0mph /  17.7km/h 84% 0.01in /  0.25mm
08:25 60.7 °F /  15.9 °C 55.8 °F /  13.2 °C 29.84in /  1010.4hPa WSW 2.0mph /  3.2km/h 11.0mph /  17.7km/h 84% 0.01in /  0.25mm
08:30 60.8 °F /  16 °C 55.6 °F /  13.1 °C 29.84in /  1010.4hPa SW 3.0mph /  4.8km/h 6.0mph /  9.7km/h 83% 0.01in /  0.25mm
08:35 61.2 °F /  16.2 °C 56.0 °F /  13.3 °C 29.84in /  1010.4hPa WSW 3.0mph /  4.8km/h 8.0mph /  12.9km/h 83% 0.01in /  0.25mm
08:40 61.6 °F /  16.4 °C 56.0 °F /  13.3 °C 29.84in /  1010.4hPa West 4.0mph /  6.4km/h 8.0mph /  12.9km/h 82% 0.01in /  0.25mm
08:45 61.9 °F /  16.6 °C 56.3 °F /  13.5 °C 29.84in /  1010.4hPa West 5.0mph /  8km/h 8.0mph /  12.9km/h 82% 0.01in /  0.25mm
08:50 62.1 °F /  16.7 °C 56.2 °F /  13.4 °C 29.84in /  1010.4hPa West 4.0mph /  6.4km/h 11.0mph /  17.7km/h 81% 0.01in /  0.25mm
08:55 62.4 °F /  16.9 °C 56.1 °F /  13.4 °C 29.84in /  1010.4hPa West 5.0mph /  8km/h 9.0mph /  14.5km/h 80% 0.01in /  0.25mm
09:00 62.9 °F /  17.2 °C 56.6 °F /  13.7 °C 29.84in /  1010.4hPa WSW 4.0mph /  6.4km/h 6.0mph /  9.7km/h 80% 0.01in /  0.25mm
09:05 62.8 °F /  17.1 °C 56.2 °F /  13.4 °C 29.85in /  1010.7hPa West 4.0mph /  6.4km/h 8.0mph /  12.9km/h 79% 0.00in /  0mm
09:10 62.7 °F /  17.1 °C 55.7 °F /  13.2 °C 29.85in /  1010.7hPa West 4.0mph /  6.4km/h 10.0mph /  16.1km/h 78% 0.00in /  0mm
09:15 62.8 °F /  17.1 °C 55.5 °F /  13.1 °C 29.85in /  1010.7hPa West 3.0mph /  4.8km/h 10.0mph /  16.1km/h 77% 0.00in /  0mm
09:20 63.0 °F /  17.2 °C 55.7 °F /  13.2 °C 29.85in /  1010.7hPa West 2.0mph /  3.2km/h 10.0mph /  16.1km/h 77% 0.00in /  0mm
09:25 63.2 °F /  17.3 °C 55.1 °F /  12.8 °C 29.85in /  1010.7hPa WNW 7.0mph /  11.3km/h 12.0mph /  19.3km/h 75% 0.00in /  0mm
09:30 63.5 °F /  17.5 °C 55.4 °F /  13 °C 29.86in /  1011.1hPa West 10.0mph /  16.1km/h 13.0mph /  20.9km/h 75% 0.00in /  0mm
09:35 63.6 °F /  17.6 °C 55.2 °F /  12.9 °C 29.86in /  1011.1hPa West 2.0mph /  3.2km/h 12.0mph /  19.3km/h 74% 0.00in /  0mm
09:40 63.6 °F /  17.6 °C 54.4 °F /  12.4 °C 29.86in /  1011.1hPa West 7.0mph /  11.3km/h 14.0mph /  22.5km/h 72% 0.00in /  0mm
09:45 63.5 °F /  17.5 °C 54.3 °F /  12.4 °C 29.86in /  1011.1hPa West 7.0mph /  11.3km/h 14.0mph /  22.5km/h 72% 0.00in /  0mm
09:50 63.7 °F /  17.6 °C 54.1 °F /  12.3 °C 29.86in /  1011.1hPa WNW 11.0mph /  17.7km/h 15.0mph /  24.1km/h 71% 0.00in /  0mm
09:55 64.0 °F /  17.8 °C 54.8 °F /  12.7 °C 29.86in /  1011.1hPa West 3.0mph /  4.8km/h 11.0mph /  17.7km/h 72% 0.00in /  0mm
10:00 64.4 °F /  18 °C 54.8 °F /  12.7 °C 29.86in /  1011.1hPa NNW 4.0mph /  6.4km/h 9.0mph /  14.5km/h 71% 0.00in /  0mm
10:05 64.2 °F /  17.9 °C 54.2 °F /  12.3 °C 29.86in /  1011.1hPa West 7.0mph /  11.3km/h 15.0mph /  24.1km/h 70% 0.00in /  0mm
10:10 64.3 °F /  17.9 °C 54.7 °F /  12.6 °C 29.86in /  1011.1hPa WSW 6.0mph /  9.7km/h 15.0mph /  24.1km/h 71% 0.00in /  0mm
10:15 64.5 °F /  18.1 °C 54.9 °F /  12.7 °C 29.86in /  1011.1hPa West 7.0mph /  11.3km/h 16.0mph /  25.7km/h 71% 0.00in /  0mm
10:20 64.5 °F /  18.1 °C 54.9 °F /  12.7 °C 29.87in /  1011.4hPa West 7.0mph /  11.3km/h 16.0mph /  25.7km/h 71% 0.00in /  0mm
10:25 64.5 °F /  18.1 °C 55.3 °F /  12.9 °C 29.87in /  1011.4hPa West 7.0mph /  11.3km/h 16.0mph /  25.7km/h 72% 0.00in /  0mm
10:30 64.7 °F /  18.2 °C 55.5 °F /  13.1 °C 29.87in /  1011.4hPa West 8.0mph /  12.9km/h 19.0mph /  30.6km/h 72% 0.00in /  0mm
10:35 64.9 °F /  18.3 °C 55.7 °F /  13.2 °C 29.87in /  1011.4hPa SSW 8.0mph /  12.9km/h 15.0mph /  24.1km/h 72% 0.00in /  0mm
10:40 65.4 °F /  18.6 °C 55.7 °F /  13.2 °C 29.87in /  1011.4hPa WNW 5.0mph /  8km/h 14.0mph /  22.5km/h 71% 0.00in /  0mm
10:45 67.6 °F /  19.8 °C 57.5 °F /  14.2 °C 29.88in /  1011.7hPa West 6.0mph /  9.7km/h 16.0mph /  25.7km/h 70% 0.00in /  0mm
10:50 66.3 °F /  19.1 °C 55.8 °F /  13.2 °C 29.88in /  1011.7hPa WNW 7.0mph /  11.3km/h 18.0mph /  29km/h 69% 0.00in /  0mm
10:55 65.7 °F /  18.7 °C 56.0 °F /  13.3 °C 29.88in /  1011.7hPa WNW 4.0mph /  6.4km/h 15.0mph /  24.1km/h 71% 0.00in /  0mm
11:00 65.3 °F /  18.5 °C 55.3 °F /  12.9 °C 29.88in /  1011.7hPa West 8.0mph /  12.9km/h 15.0mph /  24.1km/h 70% 0.00in /  0mm
11:05 64.9 °F /  18.3 °C 55.7 °F /  13.2 °C 29.88in /  1011.7hPa West 10.0mph /  16.1km/h 12.0mph /  19.3km/h 72% 0.00in /  0mm
11:10 64.8 °F /  18.2 °C 55.9 °F /  13.3 °C 29.88in /  1011.7hPa West 7.0mph /  11.3km/h 17.0mph /  27.4km/h 73% 0.00in /  0mm
11:15 64.9 °F /  18.3 °C 56.0 °F /  13.3 °C 29.89in /  1012.1hPa West 7.0mph /  11.3km/h 19.0mph /  30.6km/h 73% 0.00in /  0mm
11:20 65.5 °F /  18.6 °C 56.2 °F /  13.4 °C 29.89in /  1012.1hPa West 7.0mph /  11.3km/h 19.0mph /  30.6km/h 72% 0.00in /  0mm
11:25 65.8 °F /  18.8 °C 55.7 °F /  13.2 °C 29.88in /  1011.7hPa West 7.0mph /  11.3km/h 16.0mph /  25.7km/h 70% 0.00in /  0mm
11:30 65.8 °F /  18.8 °C 55.3 °F /  12.9 °C 29.89in /  1012.1hPa WSW 9.0mph /  14.5km/h 18.0mph /  29km/h 69% 0.00in /  0mm
11:35 66.0 °F /  18.9 °C 55.9 °F /  13.3 °C 29.89in /  1012.1hPa West 10.0mph /  16.1km/h 15.0mph /  24.1km/h 70% 0.00in /  0mm
11:40 66.2 °F /  19 °C 55.7 °F /  13.2 °C 29.89in /  1012.1hPa West 7.0mph /  11.3km/h 15.0mph /  24.1km/h 69% 0.00in /  0mm
11:45 66.4 °F /  19.1 °C 55.9 °F /  13.3 °C 29.89in /  1012.1hPa West 4.0mph /  6.4km/h 16.0mph /  25.7km/h 69% 0.00in /  0mm
11:50 66.5 °F /  19.2 °C 56.0 °F /  13.3 °C 29.89in /  1012.1hPa WNW 5.0mph /  8km/h 15.0mph /  24.1km/h 69% 0.00in /  0mm
11:55 66.1 °F /  18.9 °C 55.6 °F /  13.1 °C 29.89in /  1012.1hPa WSW 2.0mph /  3.2km/h 17.0mph /  27.4km/h 69% 0.00in /  0mm
12:00 65.4 °F /  18.6 °C 55.4 °F /  13 °C 29.89in /  1012.1hPa West 6.0mph /  9.7km/h 16.0mph /  25.7km/h 70% 0.00in /  0mm
12:05 65.3 °F /  18.5 °C 55.3 °F /  12.9 °C 29.89in /  1012.1hPa WSW 15.0mph /  24.1km/h 17.0mph /  27.4km/h 70% 0.00in /  0mm
12:10 66.7 °F /  19.3 °C 56.2 °F /  13.4 °C 29.89in /  1012.1hPa West 8.0mph /  12.9km/h 19.0mph /  30.6km/h 69% 0.00in /  0mm
12:15 67.0 °F /  19.4 °C 55.7 °F /  13.2 °C 29.89in /  1012.1hPa WSW 8.0mph /  12.9km/h 19.0mph /  30.6km/h 67% 0.00in /  0mm
12:20 66.3 °F /  19.1 °C 55.8 °F /  13.2 °C 29.90in /  1012.4hPa West 8.0mph /  12.9km/h 16.0mph /  25.7km/h 69% 0.00in /  0mm
12:25 65.6 °F /  18.7 °C 55.5 °F /  13.1 °C 29.90in /  1012.4hPa West 8.0mph /  12.9km/h 16.0mph /  25.7km/h 70% 0.00in /  0mm
12:30 65.2 °F /  18.4 °C 54.8 °F /  12.7 °C 29.90in /  1012.4hPa WSW 8.0mph /  12.9km/h 21.0mph /  33.8km/h 69% 0.00in /  0mm
12:35 64.8 °F /  18.2 °C 54.8 °F /  12.7 °C 29.90in /  1012.4hPa WSW 12.0mph /  19.3km/h 17.0mph /  27.4km/h 70% 0.00in /  0mm
12:40 65.2 °F /  18.4 °C 55.9 °F /  13.3 °C 29.90in /  1012.4hPa West 7.0mph /  11.3km/h 17.0mph /  27.4km/h 72% 0.00in /  0mm
12:45 65.5 °F /  18.6 °C 55.5 °F /  13.1 °C 29.90in /  1012.4hPa West 7.0mph /  11.3km/h 16.0mph /  25.7km/h 70% 0.00in /  0mm
12:50 65.5 °F /  18.6 °C 55.8 °F /  13.2 °C 29.90in /  1012.4hPa WSW 7.0mph /  11.3km/h 16.0mph /  25.7km/h 71% 0.00in /  0mm
12:55 65.8 °F /  18.8 °C 56.1 °F /  13.4 °C 29.90in /  1012.4hPa WSW 7.0mph /  11.3km/h 14.0mph /  22.5km/h 71% 0.00in /  0mm
13:00 65.6 °F /  18.7 °C 55.5 °F /  13.1 °C 29.90in /  1012.4hPa WSW 8.0mph /  12.9km/h 18.0mph /  29km/h 70% 0.00in /  0mm
13:05 65.5 °F /  18.6 °C 55.8 °F /  13.2 °C 29.90in /  1012.4hPa SSW 7.0mph /  11.3km/h 16.0mph /  25.7km/h 71% 0.00in /  0mm
13:10 65.9 °F /  18.8 °C 56.6 °F /  13.7 °C 29.90in /  1012.4hPa WSW 7.0mph /  11.3km/h 16.0mph /  25.7km/h 72% 0.00in /  0mm
13:15 67.1 °F /  19.5 °C 57.0 °F /  13.9 °C 29.90in /  1012.4hPa WSW 6.0mph /  9.7km/h 12.0mph /  19.3km/h 70% 0.00in /  0mm
13:20 66.9 °F /  19.4 °C 56.4 °F /  13.6 °C 29.90in /  1012.4hPa WSW 10.0mph /  16.1km/h 16.0mph /  25.7km/h 69% 0.00in /  0mm
13:25 66.4 °F /  19.1 °C 55.9 °F /  13.3 °C 29.90in /  1012.4hPa West 6.0mph /  9.7km/h 18.0mph /  29km/h 69% 0.00in /  0mm
13:30 66.3 °F /  19.1 °C 56.2 °F /  13.4 °C 29.90in /  1012.4hPa WSW 6.0mph /  9.7km/h 14.0mph /  22.5km/h 70% 0.00in /  0mm
13:35 65.9 °F /  18.8 °C 55.8 °F /  13.2 °C 29.90in /  1012.4hPa SW 7.0mph /  11.3km/h 13.0mph /  20.9km/h 70% 0.00in /  0mm
13:40 65.5 °F /  18.6 °C 56.2 °F /  13.4 °C 29.90in /  1012.4hPa West 6.0mph /  9.7km/h 14.0mph /  22.5km/h 72% 0.00in /  0mm
13:45 64.6 °F /  18.1 °C 55.7 °F /  13.2 °C 29.91in /  1012.8hPa West 7.0mph /  11.3km/h 15.0mph /  24.1km/h 73% 0.00in /  0mm
13:50 63.2 °F /  17.3 °C 56.6 °F /  13.7 °C 29.91in /  1012.8hPa West 8.0mph /  12.9km/h 19.0mph /  30.6km/h 79% 0.01in /  0.25mm
13:55 62.0 °F /  16.7 °C 56.4 °F /  13.6 °C 29.90in /  1012.4hPa West 7.0mph /  11.3km/h 19.0mph /  30.6km/h 82% 0.01in /  0.25mm
14:00 62.1 °F /  16.7 °C 56.5 °F /  13.6 °C 29.91in /  1012.8hPa West 6.0mph /  9.7km/h 13.0mph /  20.9km/h 82% 0.01in /  0.25mm
14:05 63.1 °F /  17.3 °C 57.5 °F /  14.2 °C 29.91in /  1012.8hPa West 6.0mph /  9.7km/h 13.0mph /  20.9km/h 82% 0.01in /  0.25mm
14:10 65.1 °F /  18.4 °C 59.5 °F /  15.3 °C 29.91in /  1012.8hPa WSW 3.0mph /  4.8km/h 9.0mph /  14.5km/h 82% 0.01in /  0.25mm
14:15 65.6 °F /  18.7 °C 58.6 °F /  14.8 °C 29.91in /  1012.8hPa West 5.0mph /  8km/h 10.0mph /  16.1km/h 78% 0.01in /  0.25mm
14:20 66.7 °F /  19.3 °C 58.5 °F /  14.7 °C 29.91in /  1012.8hPa WSW 4.0mph /  6.4km/h 15.0mph /  24.1km/h 75% 0.01in /  0.25mm
14:25 67.7 °F /  19.8 °C 57.6 °F /  14.2 °C 29.91in /  1012.8hPa WNW 8.0mph /  12.9km/h 12.0mph /  19.3km/h 70% 0.01in /  0.25mm
14:30 68.5 °F /  20.3 °C 59.5 °F /  15.3 °C 29.91in /  1012.8hPa WNW 9.0mph /  14.5km/h 9.0mph /  14.5km/h 73% 0.01in /  0.25mm
14:35 67.9 °F /  19.9 °C 57.4 °F /  14.1 °C 29.91in /  1012.8hPa West 12.0mph /  19.3km/h 15.0mph /  24.1km/h 69% 0.01in /  0.25mm
14:40 67.2 °F /  19.6 °C 56.7 °F /  13.7 °C 29.91in /  1012.8hPa WNW 11.0mph /  17.7km/h 16.0mph /  25.7km/h 69% 0.01in /  0.25mm
14:45 66.6 °F /  19.2 °C 56.1 °F /  13.4 °C 29.91in /  1012.8hPa West 7.0mph /  11.3km/h 17.0mph /  27.4km/h 69% 0.01in /  0.25mm
14:50 65.9 °F /  18.8 °C 56.6 °F /  13.7 °C 29.92in /  1013.1hPa West 7.0mph /  11.3km/h 17.0mph /  27.4km/h 72% 0.00in /  0mm
14:55 65.3 °F /  18.5 °C 56.8 °F /  13.8 °C 29.92in /  1013.1hPa WSW 10.0mph /  16.1km/h 15.0mph /  24.1km/h 74% 0.00in /  0mm
15:00 65.5 °F /  18.6 °C 57.0 °F /  13.9 °C 29.92in /  1013.1hPa West 6.0mph /  9.7km/h 12.0mph /  19.3km/h 74% 0.00in /  0mm
15:05 66.3 °F /  19.1 °C 57.8 °F /  14.3 °C 29.92in /  1013.1hPa WSW 5.0mph /  8km/h 12.0mph /  19.3km/h 74% 0.00in /  0mm
15:10 68.0 °F /  20 °C 58.2 °F /  14.6 °C 29.92in /  1013.1hPa SW 5.0mph /  8km/h 11.0mph /  17.7km/h 71% 0.00in /  0mm
15:15 68.5 °F /  20.3 °C 57.9 °F /  14.4 °C 29.92in /  1013.1hPa SW 4.0mph /  6.4km/h 16.0mph /  25.7km/h 69% 0.00in /  0mm
15:20 69.2 °F /  20.7 °C 58.2 °F /  14.6 °C 29.92in /  1013.1hPa WSW 8.0mph /  12.9km/h 17.0mph /  27.4km/h 68% 0.00in /  0mm
15:25 69.7 °F /  20.9 °C 58.3 °F /  14.6 °C 29.92in /  1013.1hPa West 6.0mph /  9.7km/h 19.0mph /  30.6km/h 67% 0.00in /  0mm
15:30 69.0 °F /  20.6 °C 56.7 °F /  13.7 °C 29.92in /  1013.1hPa West 14.0mph /  22.5km/h 18.0mph /  29km/h 65% 0.00in /  0mm
15:35 69.7 °F /  20.9 °C 57.4 °F /  14.1 °C 29.92in /  1013.1hPa West 3.0mph /  4.8km/h 14.0mph /  22.5km/h 65% 0.00in /  0mm
15:40 69.1 °F /  20.6 °C 57.3 °F /  14.1 °C 29.92in /  1013.1hPa SW 9.0mph /  14.5km/h 16.0mph /  25.7km/h 66% 0.00in /  0mm
15:45 69.4 °F /  20.8 °C 57.1 °F /  13.9 °C 29.92in /  1013.1hPa WNW 6.0mph /  9.7km/h 16.0mph /  25.7km/h 65% 0.00in /  0mm
15:50 69.3 °F /  20.7 °C 57.0 °F /  13.9 °C 29.92in /  1013.1hPa WSW 8.0mph /  12.9km/h 18.0mph /  29km/h 65% 0.00in /  0mm
15:55 69.4 °F /  20.8 °C 57.1 °F /  13.9 °C 29.92in /  1013.1hPa WSW 8.0mph /  12.9km/h 18.0mph /  29km/h 65% 0.00in /  0mm
16:00 68.8 °F /  20.4 °C 56.6 °F /  13.7 °C 29.93in /  1013.4hPa WSW 9.0mph /  14.5km/h 17.0mph /  27.4km/h 65% 0.00in /  0mm
16:05 68.2 °F /  20.1 °C 56.0 °F /  13.3 °C 29.93in /  1013.4hPa West 12.0mph /  19.3km/h 21.0mph /  33.8km/h 65% 0.00in /  0mm
16:10 68.0 °F /  20 °C 56.2 °F /  13.4 °C 29.93in /  1013.4hPa SW 4.0mph /  6.4km/h 15.0mph /  24.1km/h 66% 0.00in /  0mm
16:15 68.4 °F /  20.2 °C 56.2 °F /  13.4 °C 29.93in /  1013.4hPa West 9.0mph /  14.5km/h 13.0mph /  20.9km/h 65% 0.00in /  0mm
16:20 69.6 °F /  20.9 °C 56.4 °F /  13.6 °C 29.93in /  1013.4hPa WNW 11.0mph /  17.7km/h 19.0mph /  30.6km/h 63% 0.00in /  0mm
16:25 70.3 °F /  21.3 °C 57.5 °F /  14.2 °C 29.93in /  1013.4hPa WSW 9.0mph /  14.5km/h 19.0mph /  30.6km/h 64% 0.00in /  0mm
16:30 70.6 °F /  21.4 °C 57.4 °F /  14.1 °C 29.94in /  1013.8hPa WSW 9.0mph /  14.5km/h 18.0mph /  29km/h 63% 0.00in /  0mm
16:35 69.3 °F /  20.7 °C 57.0 °F /  13.9 °C 29.94in /  1013.8hPa WNW 8.0mph /  12.9km/h 17.0mph /  27.4km/h 65% 0.00in /  0mm
16:40 69.8 °F /  21 °C 56.6 °F /  13.7 °C 29.94in /  1013.8hPa WSW 7.0mph /  11.3km/h 22.0mph /  35.4km/h 63% 0.00in /  0mm
16:45 69.2 °F /  20.7 °C 56.5 °F /  13.6 °C 29.94in /  1013.8hPa SW 10.0mph /  16.1km/h 13.0mph /  20.9km/h 64% 0.00in /  0mm
16:50 68.4 °F /  20.2 °C 55.3 °F /  12.9 °C 29.94in /  1013.8hPa SW 13.0mph /  20.9km/h 18.0mph /  29km/h 63% 0.00in /  0mm
16:55 68.4 °F /  20.2 °C 55.7 °F /  13.2 °C 29.94in /  1013.8hPa WSW 10.0mph /  16.1km/h 18.0mph /  29km/h 64% 0.00in /  0mm
17:00 68.3 °F /  20.2 °C 55.6 °F /  13.1 °C 29.94in /  1013.8hPa WSW 9.0mph /  14.5km/h 18.0mph /  29km/h 64% 0.00in /  0mm
17:05 68.4 °F /  20.2 °C 56.2 °F /  13.4 °C 29.94in /  1013.8hPa WSW 9.0mph /  14.5km/h 18.0mph /  29km/h 65% 0.00in /  0mm
17:10 68.6 °F /  20.3 °C 56.8 °F /  13.8 °C 29.95in /  1014.1hPa West 8.0mph /  12.9km/h 15.0mph /  24.1km/h 66% 0.00in /  0mm
17:15 68.8 °F /  20.4 °C 55.7 °F /  13.2 °C 29.95in /  1014.1hPa WSW 9.0mph /  14.5km/h 15.0mph /  24.1km/h 63% 0.00in /  0mm
17:20 68.9 °F /  20.5 °C 55.8 °F /  13.2 °C 29.95in /  1014.1hPa WNW 6.0mph /  9.7km/h 11.0mph /  17.7km/h 63% 0.00in /  0mm
17:25 68.8 °F /  20.4 °C 55.2 °F /  12.9 °C 29.95in /  1014.1hPa West 7.0mph /  11.3km/h 14.0mph /  22.5km/h 62% 0.00in /  0mm
17:30 69.6 °F /  20.9 °C 55.6 °F /  13.1 °C 29.95in /  1014.1hPa West 7.0mph /  11.3km/h 14.0mph /  22.5km/h 61% 0.00in /  0mm
17:35 70.9 °F /  21.6 °C 54.9 °F /  12.7 °C 29.95in /  1014.1hPa West 7.0mph /  11.3km/h 12.0mph /  19.3km/h 57% 0.00in /  0mm
17:40 71.2 °F /  21.8 °C 53.7 °F /  12.1 °C 29.95in /  1014.1hPa West 9.0mph /  14.5km/h 17.0mph /  27.4km/h 54% 0.00in /  0mm
17:45 71.1 °F /  21.7 °C 53.1 °F /  11.7 °C 29.95in /  1014.1hPa West 9.0mph /  14.5km/h 18.0mph /  29km/h 53% 0.00in /  0mm
17:50 71.0 °F /  21.7 °C 51.4 °F /  10.8 °C 29.95in /  1014.1hPa West 7.0mph /  11.3km/h 21.0mph /  33.8km/h 50% 0.00in /  0mm
17:55 71.1 °F /  21.7 °C 51.5 °F /  10.8 °C 29.96in /  1014.4hPa WNW 8.0mph /  12.9km/h 22.0mph /  35.4km/h 50% 0.00in /  0mm
18:00 71.2 °F /  21.8 °C 51.1 °F /  10.6 °C 29.95in /  1014.1hPa WNW 5.0mph /  8km/h 14.0mph /  22.5km/h 49% 0.00in /  0mm
18:05 71.2 °F /  21.8 °C 50.5 °F /  10.3 °C 29.95in /  1014.1hPa West 8.0mph /  12.9km/h 13.0mph /  20.9km/h 48% 0.00in /  0mm
18:10 70.9 °F /  21.6 °C 50.8 °F /  10.4 °C 29.96in /  1014.4hPa West 12.0mph /  19.3km/h 18.0mph /  29km/h 49% 0.00in /  0mm
18:15 70.7 °F /  21.5 °C 50.0 °F /  10 °C 29.96in /  1014.4hPa West 8.0mph /  12.9km/h 17.0mph /  27.4km/h 48% 0.00in /  0mm
18:20 70.5 °F /  21.4 °C 50.4 °F /  10.2 °C 29.96in /  1014.4hPa NW 8.0mph /  12.9km/h 19.0mph /  30.6km/h 49% 0.00in /  0mm
18:25 70.3 °F /  21.3 °C 49.7 °F /  9.8 °C 29.96in /  1014.4hPa West 10.0mph /  16.1km/h 16.0mph /  25.7km/h 48% 0.00in /  0mm
18:30 70.1 °F /  21.2 °C 50.0 °F /  10 °C 29.96in /  1014.4hPa WNW 6.0mph /  9.7km/h 16.0mph /  25.7km/h 49% 0.00in /  0mm
18:35 69.9 °F /  21.1 °C 49.9 °F /  9.9 °C 29.96in /  1014.4hPa WNW 10.0mph /  16.1km/h 22.0mph /  35.4km/h 49% 0.00in /  0mm
18:40 69.7 °F /  20.9 °C 49.7 °F /  9.8 °C 29.96in /  1014.4hPa WNW 10.0mph /  16.1km/h 22.0mph /  35.4km/h 49% 0.00in /  0mm
18:45 69.5 °F /  20.8 °C 50.6 °F /  10.3 °C 29.97in /  1014.8hPa West 9.0mph /  14.5km/h 19.0mph /  30.6km/h 51% 0.00in /  0mm
18:50 69.4 °F /  20.8 °C 50.5 °F /  10.3 °C 29.96in /  1014.4hPa WSW 9.0mph /  14.5km/h 14.0mph /  22.5km/h 51% 0.00in /  0mm
18:55 69.3 °F /  20.7 °C 50.9 °F /  10.5 °C 29.97in /  1014.8hPa NW 7.0mph /  11.3km/h 14.0mph /  22.5km/h 52% 0.00in /  0mm
19:00 69.4 °F /  20.8 °C 51.0 °F /  10.6 °C 29.97in /  1014.8hPa WNW 8.0mph /  12.9km/h 16.0mph /  25.7km/h 52% 0.00in /  0mm
19:05 69.5 °F /  20.8 °C 50.0 °F /  10 °C 29.97in /  1014.8hPa West 8.0mph /  12.9km/h 23.0mph /  37km/h 50% 0.00in /  0mm
19:10 69.2 °F /  20.7 °C 49.8 °F /  9.9 °C 29.97in /  1014.8hPa West 7.0mph /  11.3km/h 16.0mph /  25.7km/h 50% 0.00in /  0mm
19:15 68.9 °F /  20.5 °C 49.5 °F /  9.7 °C 29.97in /  1014.8hPa West 5.0mph /  8km/h 18.0mph /  29km/h 50% 0.00in /  0mm
19:20 68.7 °F /  20.4 °C 50.4 °F /  10.2 °C 29.98in /  1015.1hPa West 9.0mph /  14.5km/h 14.0mph /  22.5km/h 52% 0.00in /  0mm
19:25 68.5 °F /  20.3 °C 50.2 °F /  10.1 °C 29.98in /  1015.1hPa West 6.0mph /  9.7km/h 12.0mph /  19.3km/h 52% 0.00in /  0mm
19:30 68.3 °F /  20.2 °C 50.0 °F /  10 °C 29.98in /  1015.1hPa West 6.0mph /  9.7km/h 12.0mph /  19.3km/h 52% 0.00in /  0mm
19:35 68.1 °F /  20.1 °C 50.3 °F /  10.2 °C 29.98in /  1015.1hPa West 6.0mph /  9.7km/h 11.0mph /  17.7km/h 53% 0.00in /  0mm
19:40 68.0 °F /  20 °C 50.2 °F /  10.1 °C 29.98in /  1015.1hPa West 5.0mph /  8km/h 11.0mph /  17.7km/h 53% 0.00in /  0mm
19:45 67.7 °F /  19.8 °C 50.9 °F /  10.5 °C 29.99in /  1015.5hPa West 6.0mph /  9.7km/h 14.0mph /  22.5km/h 55% 0.00in /  0mm
19:50 67.5 °F /  19.7 °C 50.8 °F /  10.4 °C 29.99in /  1015.5hPa West 6.0mph /  9.7km/h 10.0mph /  16.1km/h 55% 0.00in /  0mm
19:55 67.2 °F /  19.6 °C 50.5 °F /  10.3 °C 29.99in /  1015.5hPa NW 7.0mph /  11.3km/h 15.0mph /  24.1km/h 55% 0.00in /  0mm
20:00 67.1 °F /  19.5 °C 50.4 °F /  10.2 °C 30.00in /  1015.8hPa NW 4.0mph /  6.4km/h 12.0mph /  19.3km/h 55% 0.00in /  0mm
20:05 66.9 °F /  19.4 °C 50.7 °F /  10.4 °C 29.99in /  1015.5hPa WNW 5.0mph /  8km/h 12.0mph /  19.3km/h 56% 0.00in /  0mm
20:10 66.6 °F /  19.2 °C 50.4 °F /  10.2 °C 29.99in /  1015.5hPa WNW 5.0mph /  8km/h 10.0mph /  16.1km/h 56% 0.00in /  0mm
20:15 66.4 °F /  19.1 °C 50.7 °F /  10.4 °C 29.99in /  1015.5hPa NW 4.0mph /  6.4km/h 10.0mph /  16.1km/h 57% 0.00in /  0mm
20:20 66.2 °F /  19 °C 50.5 °F /  10.3 °C 29.99in /  1015.5hPa WNW 2.0mph /  3.2km/h 8.0mph /  12.9km/h 57% 0.00in /  0mm
20:25 65.9 °F /  18.8 °C 50.2 °F /  10.1 °C 29.99in /  1015.5hPa West 5.0mph /  8km/h 9.0mph /  14.5km/h 57% 0.00in /  0mm
20:30 65.7 °F /  18.7 °C 50.5 °F /  10.3 °C 30.00in /  1015.8hPa West 5.0mph /  8km/h 10.0mph /  16.1km/h 58% 0.00in /  0mm
20:35 65.6 °F /  18.7 °C 50.4 °F /  10.2 °C 30.00in /  1015.8hPa WNW 3.0mph /  4.8km/h 8.0mph /  12.9km/h 58% 0.00in /  0mm
20:40 65.3 °F /  18.5 °C 50.1 °F /  10.1 °C 30.00in /  1015.8hPa WNW 4.0mph /  6.4km/h 8.0mph /  12.9km/h 58% 0.00in /  0mm
20:45 65.2 °F /  18.4 °C 50.5 °F /  10.3 °C 30.00in /  1015.8hPa WNW 4.0mph /  6.4km/h 10.0mph /  16.1km/h 59% 0.00in /  0mm
20:50 65.1 °F /  18.4 °C 50.4 °F /  10.2 °C 30.00in /  1015.8hPa WNW 4.0mph /  6.4km/h 8.0mph /  12.9km/h 59% 0.00in /  0mm
20:55 64.8 °F /  18.2 °C 50.1 °F /  10.1 °C 30.00in /  1015.8hPa WNW 6.0mph /  9.7km/h 8.0mph /  12.9km/h 59% 0.00in /  0mm
21:00 64.7 °F /  18.2 °C 50.5 °F /  10.3 °C 30.00in /  1015.8hPa WNW 2.0mph /  3.2km/h 8.0mph /  12.9km/h 60% 0.00in /  0mm
21:05 64.3 °F /  17.9 °C 50.1 °F /  10.1 °C 30.00in /  1015.8hPa WNW 2.0mph /  3.2km/h 5.0mph /  8km/h 60% 0.00in /  0mm
21:10 64.1 °F /  17.8 °C 50.4 °F /  10.2 °C 30.00in /  1015.8hPa WNW 2.0mph /  3.2km/h 5.0mph /  8km/h 61% 0.00in /  0mm
21:15 64.0 °F /  17.8 °C 50.7 °F /  10.4 °C 30.00in /  1015.8hPa West 2.0mph /  3.2km/h 5.0mph /  8km/h 62% 0.00in /  0mm
21:20 63.5 °F /  17.5 °C 50.2 °F /  10.1 °C 30.00in /  1015.8hPa West 2.0mph /  3.2km/h 5.0mph /  8km/h 62% 0.00in /  0mm
21:25 63.2 °F /  17.3 °C 50.4 °F /  10.2 °C 30.00in /  1015.8hPa Calm   2.0mph /  3.2km/h 63% 0.00in /  0mm
21:30 62.7 °F /  17.1 °C 50.3 °F /  10.2 °C 30.00in /  1015.8hPa Calm   2.0mph /  3.2km/h 64% 0.00in /  0mm
21:35 62.3 °F /  16.8 °C 50.4 °F /  10.2 °C 30.00in /  1015.8hPa Calm   3.0mph /  4.8km/h 65% 0.00in /  0mm
21:40 62.1 °F /  16.7 °C 50.6 °F /  10.3 °C 30.01in /  1016.1hPa Calm   3.0mph /  4.8km/h 66% 0.00in /  0mm
21:45 61.5 °F /  16.4 °C 50.8 °F /  10.4 °C 30.00in /  1015.8hPa Calm     68% 0.00in /  0mm
21:50 61.0 °F /  16.1 °C 50.4 °F /  10.2 °C 30.01in /  1016.1hPa Calm     68% 0.00in /  0mm
21:55 60.6 °F /  15.9 °C 50.8 °F /  10.4 °C 30.01in /  1016.1hPa Calm     70% 0.00in /  0mm
22:00 60.2 °F /  15.7 °C 50.8 °F /  10.4 °C 30.01in /  1016.1hPa Calm     71% 0.00in /  0mm
22:05 59.8 °F /  15.4 °C 50.4 °F /  10.2 °C 30.01in /  1016.1hPa Calm     71% 0.00in /  0mm
22:10 59.4 °F /  15.2 °C 50.4 °F /  10.2 °C 30.01in /  1016.1hPa Calm     72% 0.00in /  0mm
22:15 59.1 °F /  15.1 °C 50.5 °F /  10.3 °C 30.01in /  1016.1hPa Calm     73% 0.00in /  0mm
22:20 58.8 °F /  14.9 °C 50.5 °F /  10.3 °C 30.01in /  1016.1hPa Calm     74% 0.00in /  0mm
22:25 58.5 °F /  14.7 °C 50.6 °F /  10.3 °C 30.02in /  1016.5hPa Calm     75% 0.00in /  0mm
22:30 58.2 °F /  14.6 °C 50.3 °F /  10.2 °C 30.02in /  1016.5hPa Calm     75% 0.00in /  0mm
22:35 58.1 °F /  14.5 °C 50.6 °F /  10.3 °C 30.02in /  1016.5hPa Calm     76% 0.00in /  0mm
22:40 57.9 °F /  14.4 °C 50.4 °F /  10.2 °C 30.02in /  1016.5hPa Calm     76% 0.00in /  0mm
22:45 58.0 °F /  14.4 °C 50.5 °F /  10.3 °C 30.02in /  1016.5hPa Calm   2.0mph /  3.2km/h 76% 0.00in /  0mm
22:50 58.1 °F /  14.5 °C 50.6 °F /  10.3 °C 30.02in /  1016.5hPa Calm     76% 0.00in /  0mm
22:55 58.2 °F /  14.6 °C 50.7 °F /  10.4 °C 30.02in /  1016.5hPa Calm     76% 0.00in /  0mm
23:00 58.1 °F /  14.5 °C 50.6 °F /  10.3 °C 30.02in /  1016.5hPa Calm     76% 0.00in /  0mm
23:05 57.8 °F /  14.3 °C 50.6 °F /  10.3 °C 30.02in /  1016.5hPa Calm     77% 0.00in /  0mm
23:10 57.7 °F /  14.3 °C 50.5 °F /  10.3 °C 30.02in /  1016.5hPa Calm     77% 0.00in /  0mm
23:15 57.6 °F /  14.2 °C 50.4 °F /  10.2 °C 30.02in /  1016.5hPa Calm     77% 0.00in /  0mm
23:20 57.4 °F /  14.1 °C 50.6 °F /  10.3 °C 30.03in /  1016.8hPa Calm     78% 0.00in /  0mm
23:25 57.3 °F /  14.1 °C 50.5 °F /  10.3 °C 30.03in /  1016.8hPa Calm     78% 0.00in /  0mm
23:30 57.1 °F /  13.9 °C 50.3 °F /  10.2 °C 30.02in /  1016.5hPa Calm     78% 0.00in /  0mm
23:35 56.9 °F /  13.8 °C 50.5 °F /  10.3 °C 30.02in /  1016.5hPa Calm     79% 0.00in /  0mm
23:45 56.6 °F /  13.7 °C 50.2 °F /  10.1 °C 30.02in /  1016.5hPa Calm     79% 0.00in /  0mm
23:50 56.4 °F /  13.6 °C 50.0 °F /  10 °C 30.02in /  1016.5hPa Calm     79% 0.00in /  0mm
23:55 56.3 °F /  13.5 °C 49.9 °F /  9.9 °C 30.02in /  1016.5hPa Calm     79% 0.00in /  0mm
Buffalo, New York, USA
Compliments of Weather Underground - 2.75 mb